createdAt,value
2023-04-22T00:00:19.854Z,5.36
2023-04-22T00:02:49.425Z,5.26
2023-04-22T00:05:20.633Z,5.21
2023-04-22T00:07:50.324Z,5.08
2023-04-22T00:10:19.616Z,5.03
2023-04-22T00:12:48.933Z,5.09
2023-04-22T00:15:20.054Z,4.95
2023-04-22T00:17:50.234Z,4.85
2023-04-22T00:20:22.588Z,4.85
2023-04-22T00:22:52.012Z,4.81
2023-04-22T00:25:21.317Z,4.77
2023-04-22T00:27:50.704Z,4.79
2023-04-22T00:30:20.048Z,4.75
2023-04-22T00:32:50.022Z,4.86
2023-04-22T00:35:19.350Z,4.90
2023-04-22T00:37:48.892Z,4.88
2023-04-22T00:40:18.300Z,4.92
2023-04-22T00:42:48.253Z,4.86
2023-04-22T00:45:18.679Z,4.75
2023-04-22T00:47:49.436Z,4.64
2023-04-22T00:50:18.983Z,4.67
2023-04-22T00:52:48.327Z,4.58
2023-04-22T00:55:17.657Z,4.69
2023-04-22T00:57:47.801Z,4.77
2023-04-22T01:00:17.722Z,4.90
2023-04-22T01:02:48.265Z,4.95
2023-04-22T01:05:18.082Z,4.83
2023-04-22T01:07:47.647Z,4.74
2023-04-22T01:10:17.660Z,4.73
2023-04-22T01:12:46.982Z,4.64
2023-04-22T01:15:16.448Z,4.66
2023-04-22T01:17:46.990Z,4.64
2023-04-22T01:20:16.615Z,4.60
2023-04-22T01:22:46.942Z,4.73
2023-04-22T01:25:16.242Z,4.82
2023-04-22T01:27:45.595Z,4.90
2023-04-22T01:30:15.418Z,4.94
2023-04-22T01:32:45.010Z,5.00
2023-04-22T01:35:14.407Z,5.02
2023-04-22T01:37:44.033Z,5.06
2023-04-22T01:40:14.869Z,5.11
2023-04-22T01:42:44.138Z,5.18
2023-04-22T01:45:13.580Z,5.16
2023-04-22T01:47:43.244Z,5.08
2023-04-22T01:50:12.541Z,5.06
2023-04-22T01:52:42.761Z,5.07
2023-04-22T01:55:12.028Z,5.07
2023-04-22T01:57:41.396Z,4.97
2023-04-22T02:00:11.556Z,4.92
2023-04-22T02:02:45.884Z,4.89
2023-04-22T02:05:16.087Z,4.88
2023-04-22T02:07:47.582Z,4.85
2023-04-22T02:10:18.214Z,4.86
2023-04-22T02:12:48.168Z,4.84
2023-04-22T02:15:17.477Z,4.81
2023-04-22T02:17:46.843Z,4.74
2023-04-22T02:20:16.145Z,4.73
2023-04-22T02:22:46.893Z,4.73
2023-04-22T02:25:16.728Z,4.75
2023-04-22T02:27:46.014Z,4.72
2023-04-22T02:30:16.534Z,4.79
2023-04-22T02:32:46.236Z,4.74
2023-04-22T02:35:15.564Z,4.74
2023-04-22T02:37:45.282Z,4.74
2023-04-22T02:40:14.527Z,4.75
2023-04-22T02:42:43.806Z,4.81
2023-04-22T02:45:13.161Z,4.89
2023-04-22T02:47:44.198Z,4.89
2023-04-22T02:50:13.922Z,4.99
2023-04-22T02:52:43.549Z,5.02
2023-04-22T02:55:13.057Z,5.01
2023-04-22T02:57:42.685Z,5.03
2023-04-22T03:00:12.722Z,5.03
2023-04-22T03:02:42.932Z,5.12
2023-04-22T03:05:14.663Z,5.12
2023-04-22T03:07:44.713Z,5.17
2023-04-22T03:10:14.042Z,5.21
2023-04-22T03:12:44.472Z,5.24
2023-04-22T03:15:14.332Z,5.52
2023-04-22T03:17:43.961Z,5.52
2023-04-22T03:20:15.233Z,5.56
2023-04-22T03:22:44.607Z,5.52
2023-04-22T03:25:14.896Z,5.55
2023-04-22T03:27:45.921Z,5.54
2023-04-22T03:30:15.378Z,5.55
2023-04-22T03:32:44.901Z,5.55
2023-04-22T03:35:16.397Z,5.55
2023-04-22T03:37:47.176Z,5.61
2023-04-22T03:40:18.313Z,5.67
2023-04-22T03:42:47.690Z,5.69
2023-04-22T03:45:19.066Z,5.74
2023-04-22T03:47:50.787Z,5.73
2023-04-22T03:50:22.154Z,5.73
2023-04-22T03:52:52.318Z,5.68
2023-04-22T03:55:23.401Z,5.64
2023-04-22T03:57:53.960Z,5.65
2023-04-22T04:00:23.433Z,5.67
2023-04-22T04:02:54.769Z,5.70
2023-04-22T04:05:26.415Z,5.73
2023-04-22T04:07:56.674Z,5.80
2023-04-22T04:10:27.243Z,5.83
2023-04-22T04:12:58.192Z,5.81
2023-04-22T04:15:27.953Z,5.81
2023-04-22T04:17:57.334Z,5.77
2023-04-22T04:20:27.961Z,5.76
2023-04-22T04:22:57.331Z,5.74
2023-04-22T04:25:27.613Z,5.72
2023-04-22T04:27:56.975Z,5.69
2023-04-22T04:30:26.323Z,5.74
2023-04-22T04:32:57.925Z,5.72
2023-04-22T04:35:28.390Z,5.70
2023-04-22T04:37:59.435Z,5.74
2023-04-22T04:40:31.911Z,5.76
2023-04-22T04:43:13.032Z,5.77
2023-04-22T04:45:48.709Z,5.73
2023-04-22T04:48:20.374Z,5.76
2023-04-22T04:50:53.084Z,5.72
2023-04-22T04:53:23.727Z,5.70
2023-04-22T04:55:53.630Z,5.78
2023-04-22T04:58:24.153Z,5.81
2023-04-22T05:00:55.376Z,5.83
2023-04-22T05:03:26.656Z,5.84
2023-04-22T05:05:56.839Z,5.91
2023-04-22T05:08:26.574Z,5.94
2023-04-22T05:10:57.554Z,5.99
2023-04-22T05:13:27.650Z,6.05
2023-04-22T05:15:57.722Z,6.04
2023-04-22T05:18:27.326Z,6.04
2023-04-22T05:20:58.802Z,6.07
2023-04-22T05:23:30.819Z,6.09
2023-04-22T05:26:00.812Z,6.11
2023-04-22T05:28:31.585Z,6.18
2023-04-22T05:31:00.996Z,6.26
2023-04-22T05:33:31.343Z,6.28
2023-04-22T05:36:00.891Z,6.33
2023-04-22T05:38:30.203Z,6.40
2023-04-22T05:40:59.574Z,6.44
2023-04-22T05:43:29.052Z,6.54
2023-04-22T05:46:06.210Z,6.63
2023-04-22T05:48:37.000Z,6.76
2023-04-22T05:51:08.259Z,6.86
2023-04-22T05:53:37.834Z,6.92
2023-04-22T05:56:07.402Z,7.03
2023-04-22T05:58:37.731Z,7.29
2023-04-22T06:01:12.142Z,7.43
2023-04-22T06:03:43.616Z,7.27
2023-04-22T06:08:43.208Z,7.18
2023-04-22T06:11:13.099Z,7.29
2023-04-22T06:13:42.406Z,7.27
2023-04-22T06:16:13.559Z,7.33
2023-04-22T06:18:44.707Z,7.33
2023-04-22T06:21:14.436Z,7.36
2023-04-22T06:23:44.305Z,7.43
2023-04-22T06:26:14.163Z,7.53
2023-04-22T06:28:43.870Z,7.63
2023-04-22T06:31:15.233Z,7.73
2023-04-22T06:33:44.896Z,7.71
2023-04-22T06:36:14.928Z,7.76
2023-04-22T06:38:45.961Z,7.95
2023-04-22T06:41:26.412Z,8.02
2023-04-22T06:43:57.415Z,8.04
2023-04-22T06:46:46.772Z,8.20
2023-04-22T06:49:26.705Z,8.24
2023-04-22T06:52:00.911Z,8.34
2023-04-22T06:54:31.956Z,8.53
2023-04-22T06:57:01.608Z,8.64
2023-04-22T06:59:31.327Z,8.82
2023-04-22T07:02:01.358Z,8.82
2023-04-22T07:04:32.117Z,8.75
2023-04-22T07:07:01.892Z,8.76
2023-04-22T07:09:31.661Z,8.99
2023-04-22T07:12:01.458Z,8.91
2023-04-22T07:14:33.188Z,9.22
2023-04-22T07:17:02.567Z,9.31
2023-04-22T07:19:33.311Z,9.70
2023-04-22T07:22:03.673Z,9.83
2023-04-22T07:24:33.210Z,9.84
2023-04-22T07:27:03.196Z,10.05
2023-04-22T07:29:32.502Z,9.67
2023-04-22T07:32:02.038Z,10.07
2023-04-22T07:34:31.322Z,10.39
2023-04-22T07:37:00.728Z,10.83
2023-04-22T07:39:30.005Z,11.02
2023-04-22T07:41:59.555Z,11.19
2023-04-22T07:44:29.016Z,10.98
2023-04-22T07:46:58.965Z,11.37
2023-04-22T07:49:28.260Z,11.44
2023-04-22T07:51:58.197Z,11.64
2023-04-22T07:54:30.620Z,11.78
2023-04-22T07:57:00.068Z,11.87
2023-04-22T07:59:29.345Z,12.05
2023-04-22T08:01:58.664Z,12.09
2023-04-22T08:04:28.416Z,11.96
2023-04-22T08:06:58.374Z,11.89
2023-04-22T08:09:27.717Z,12.13
2023-04-22T08:11:58.644Z,12.14
2023-04-22T08:14:28.192Z,12.31
2023-04-22T08:16:57.636Z,12.10
2023-04-22T08:19:26.977Z,12.37
2023-04-22T08:21:58.047Z,12.61
2023-04-22T08:24:27.373Z,13.03
2023-04-22T08:26:59.767Z,13.14
2023-04-22T08:29:29.458Z,12.93
2023-04-22T08:31:58.724Z,12.99
2023-04-22T08:34:28.999Z,12.98
2023-04-22T08:36:58.655Z,12.86
2023-04-22T08:39:28.214Z,13.10
2023-04-22T08:41:58.296Z,12.90
2023-04-22T08:44:28.362Z,13.24
2023-04-22T08:46:57.892Z,13.58
2023-04-22T08:49:28.022Z,13.72
2023-04-22T08:51:57.420Z,13.69
2023-04-22T08:54:27.173Z,13.93
2023-04-22T08:56:56.841Z,14.02
2023-04-22T08:59:26.625Z,14.59
2023-04-22T09:01:56.875Z,14.63
2023-04-22T09:04:26.505Z,14.77
2023-04-22T09:06:56.248Z,14.44
2023-04-22T09:09:26.210Z,14.59
2023-04-22T09:11:55.902Z,14.65
2023-04-22T09:14:26.719Z,15.17
2023-04-22T09:16:57.786Z,15.20
2023-04-22T09:19:27.173Z,14.98
2023-04-22T09:22:01.111Z,15.05
2023-04-22T09:24:31.274Z,15.76
2023-04-22T09:27:03.505Z,15.68
2023-04-22T09:29:32.824Z,15.94
2023-04-22T09:32:02.290Z,16.51
2023-04-22T09:34:32.486Z,16.25
2023-04-22T09:37:01.745Z,15.96
2023-04-22T09:39:31.514Z,17.22
2023-04-22T09:42:01.612Z,18.20
2023-04-22T09:44:31.186Z,19.91
2023-04-22T09:47:00.582Z,20.78
2023-04-22T09:49:30.243Z,22.49
2023-04-22T09:51:59.630Z,22.12
2023-04-22T09:54:30.547Z,21.30
2023-04-22T09:56:59.843Z,20.77
2023-04-22T09:59:31.552Z,21.91
2023-04-22T10:02:04.309Z,20.63
2023-04-22T10:04:34.694Z,21.24
2023-04-22T10:07:04.021Z,21.26
2023-04-22T10:09:34.639Z,19.21
2023-04-22T10:12:03.989Z,18.90
2023-04-22T10:14:33.280Z,18.65
2023-04-22T10:17:04.103Z,18.09
2023-04-22T10:19:34.511Z,16.95
2023-04-22T10:22:05.211Z,16.36
2023-04-22T10:24:37.960Z,15.96
2023-04-22T10:27:08.367Z,15.86
2023-04-22T10:29:40.155Z,15.65
2023-04-22T10:32:22.110Z,14.96
2023-04-22T10:34:53.287Z,15.05
2023-04-22T10:37:22.744Z,15.22
2023-04-22T10:40:12.008Z,15.31
2023-04-22T10:42:42.707Z,15.37
2023-04-22T10:45:16.056Z,15.62
2023-04-22T10:47:46.433Z,14.98
2023-04-22T10:50:18.966Z,14.77
2023-04-22T10:52:49.150Z,14.59
2023-04-22T10:55:18.589Z,14.40
2023-04-22T10:57:49.933Z,14.10
2023-04-22T11:00:41.759Z,13.58
2023-04-22T11:03:14.067Z,13.47
2023-04-22T11:05:44.297Z,13.23
2023-04-22T11:11:27.006Z,12.91
2023-04-22T11:13:56.892Z,12.63
2023-04-22T11:16:26.917Z,12.44
2023-04-22T11:18:57.702Z,12.27
2023-04-22T11:21:27.873Z,12.09
2023-04-22T11:24:05.199Z,11.97
2023-04-22T11:26:36.184Z,11.92
2023-04-22T11:29:06.245Z,11.82
2023-04-22T11:31:36.896Z,11.60
2023-04-22T11:34:06.356Z,11.40
2023-04-22T11:36:35.837Z,11.25
2023-04-22T11:39:08.628Z,11.17
2023-04-22T11:41:38.199Z,11.08
2023-04-22T11:44:07.516Z,11.07
2023-04-22T11:46:38.826Z,10.98
2023-04-22T11:49:18.711Z,10.94
2023-04-22T11:51:56.504Z,10.90
2023-04-22T11:54:33.108Z,10.94
2023-04-22T11:57:11.734Z,10.89
2023-04-22T11:59:41.322Z,10.97
2023-04-22T12:02:11.348Z,11.01
2023-04-22T12:04:41.937Z,11.05
2023-04-22T12:07:11.676Z,10.97
2023-04-22T12:09:41.624Z,10.90
2023-04-22T12:12:11.464Z,10.81
2023-04-22T12:14:41.094Z,10.84
2023-04-22T12:17:12.230Z,10.89
2023-04-22T12:19:42.067Z,10.81
2023-04-22T12:22:11.597Z,10.84
2023-04-22T12:24:44.186Z,10.81
2023-04-22T12:27:12.738Z,10.68
2023-04-22T12:29:45.721Z,10.74
2023-04-22T12:32:14.979Z,10.67
2023-04-22T12:34:44.358Z,10.61
2023-04-22T12:37:13.972Z,10.69
2023-04-22T12:39:43.422Z,10.61
2023-04-22T12:42:12.866Z,10.76
2023-04-22T12:44:43.566Z,10.73
2023-04-22T12:47:12.980Z,10.74
2023-04-22T12:49:43.563Z,10.81
2023-04-22T12:52:13.336Z,10.89
2023-04-22T12:54:42.742Z,10.84
2023-04-22T12:57:12.154Z,10.65
2023-04-22T12:59:41.990Z,10.63
2023-04-22T13:02:11.530Z,10.67
2023-04-22T13:04:41.025Z,10.65
2023-04-22T13:07:11.026Z,10.34
2023-04-22T13:09:40.646Z,10.28
2023-04-22T13:12:10.217Z,10.27
2023-04-22T13:14:39.600Z,10.38
2023-04-22T13:17:08.867Z,10.50
2023-04-22T13:19:38.412Z,10.61
2023-04-22T13:22:07.762Z,10.72
2023-04-22T13:24:37.337Z,10.65
2023-04-22T13:27:07.648Z,10.61
2023-04-22T13:29:37.134Z,10.59
2023-04-22T13:32:06.984Z,10.60
2023-04-22T13:34:36.449Z,10.55
2023-04-22T13:37:06.232Z,10.52
2023-04-22T13:39:35.672Z,10.60
2023-04-22T13:42:05.664Z,10.55
2023-04-22T13:44:35.214Z,10.55
2023-04-22T13:47:04.572Z,10.58
2023-04-22T13:49:33.923Z,10.52
2023-04-22T13:52:03.330Z,10.47
2023-04-22T13:54:32.614Z,10.47
2023-04-22T13:57:03.473Z,10.51
2023-04-22T13:59:34.731Z,10.56
2023-04-22T14:02:04.077Z,10.50
2023-04-22T14:04:34.712Z,10.41
2023-04-22T14:07:04.258Z,10.43
2023-04-22T14:09:34.722Z,10.47
2023-04-22T14:12:05.043Z,10.37
2023-04-22T14:14:34.658Z,10.33
2023-04-22T14:17:03.997Z,10.49
2023-04-22T14:19:33.990Z,10.55
2023-04-22T14:22:03.286Z,10.36
2023-04-22T14:24:33.298Z,10.37
2023-04-22T14:27:02.604Z,10.35
2023-04-22T14:29:32.373Z,10.33
2023-04-22T14:32:02.199Z,10.23
2023-04-22T14:34:31.542Z,10.11
2023-04-22T14:37:00.960Z,10.02
2023-04-22T14:39:30.388Z,9.97
2023-04-22T14:41:59.877Z,9.97
2023-04-22T14:44:29.512Z,10.00
2023-04-22T14:46:58.872Z,9.87
2023-04-22T14:49:28.457Z,9.85
2023-04-22T14:51:59.399Z,9.81
2023-04-22T14:54:29.314Z,9.76
2023-04-22T14:56:58.929Z,9.72
2023-04-22T14:59:28.268Z,9.62
2023-04-22T15:01:57.901Z,9.52
2023-04-22T15:04:27.651Z,9.35
2023-04-22T15:06:57.877Z,9.31
2023-04-22T15:09:27.847Z,9.27
2023-04-22T15:11:59.138Z,9.25
2023-04-22T15:14:28.379Z,9.17
2023-04-22T15:16:57.763Z,9.18
2023-04-22T15:19:27.034Z,9.21
2023-04-22T15:21:56.329Z,9.09
2023-04-22T15:24:25.793Z,8.95
2023-04-22T15:26:56.728Z,8.96
2023-04-22T15:29:27.873Z,8.94
2023-04-22T15:31:57.933Z,8.95
2023-04-22T15:34:27.366Z,8.80
2023-04-22T15:36:56.772Z,8.64
2023-04-22T15:39:26.297Z,8.61
2023-04-22T15:41:55.721Z,8.61
2023-04-22T15:44:25.043Z,8.66
2023-04-22T15:46:54.464Z,8.41
2023-04-22T15:49:25.063Z,8.42
2023-04-22T15:51:54.917Z,8.40
2023-04-22T15:54:24.180Z,8.51
2023-04-22T15:56:53.811Z,8.47
2023-04-22T15:59:23.080Z,8.46
2023-04-22T16:01:52.748Z,8.40
2023-04-22T16:04:22.329Z,8.42
2023-04-22T16:06:51.903Z,8.39
2023-04-22T16:09:21.194Z,8.39
2023-04-22T16:11:51.164Z,8.54
2023-04-22T16:14:20.778Z,8.60
2023-04-22T16:16:50.307Z,8.55
2023-04-22T16:19:19.619Z,8.67
2023-04-22T16:21:49.101Z,8.80
2023-04-22T16:24:18.368Z,8.78
2023-04-22T16:26:47.746Z,8.87
2023-04-22T16:29:17.416Z,8.92
2023-04-22T16:31:47.126Z,9.07
2023-04-22T16:34:16.864Z,9.49
2023-04-22T16:36:46.484Z,9.43
2023-04-22T16:39:16.420Z,9.72
2023-04-22T16:41:45.941Z,10.48
2023-04-22T16:44:15.335Z,10.78
2023-04-22T16:46:45.031Z,10.90
2023-04-22T16:49:14.644Z,11.19
2023-04-22T16:51:43.940Z,11.33
2023-04-22T16:54:13.253Z,11.10
2023-04-22T16:56:42.852Z,10.78
2023-04-22T16:59:12.235Z,10.41
2023-04-22T17:01:44.540Z,10.40
2023-04-22T17:04:13.916Z,10.01
2023-04-22T17:06:44.423Z,10.07
2023-04-22T17:09:13.769Z,10.16
2023-04-22T17:11:43.171Z,10.12
2023-04-22T17:14:12.552Z,10.05
2023-04-22T17:16:41.878Z,9.85
2023-04-22T17:19:11.913Z,9.58
2023-04-22T17:21:41.267Z,9.56
2023-04-22T17:24:10.815Z,9.70
2023-04-22T17:26:40.564Z,9.61
2023-04-22T17:29:10.249Z,9.70
2023-04-22T17:31:40.304Z,9.63
2023-04-22T17:34:09.901Z,9.57
2023-04-22T17:36:39.173Z,9.51
2023-04-22T17:39:08.926Z,9.28
2023-04-22T17:41:38.250Z,9.37
2023-04-22T17:44:08.922Z,9.35
2023-04-22T17:46:38.388Z,9.43
2023-04-22T17:49:08.070Z,9.39
2023-04-22T17:51:37.794Z,9.30
2023-04-22T17:54:08.068Z,9.26
2023-04-22T17:56:37.787Z,9.13
2023-04-22T17:59:07.532Z,9.15
2023-04-22T18:01:38.829Z,9.19
2023-04-22T18:04:08.652Z,9.18
2023-04-22T18:06:38.411Z,9.12
2023-04-22T18:09:08.510Z,9.13
2023-04-22T18:11:37.769Z,9.15
2023-04-22T18:14:08.024Z,9.06
2023-04-22T18:16:37.954Z,9.02
2023-04-22T18:19:07.438Z,9.04
2023-04-22T18:21:39.726Z,9.02
2023-04-22T18:24:08.460Z,8.97
2023-04-22T18:26:37.782Z,8.95
2023-04-22T18:29:08.745Z,8.90
2023-04-22T18:31:38.238Z,8.91
2023-04-22T18:34:08.272Z,8.86
2023-04-22T18:36:38.064Z,8.79
2023-04-22T18:39:07.604Z,8.78
2023-04-22T18:41:39.096Z,8.72
2023-04-22T18:44:08.502Z,8.70
2023-04-22T18:46:37.983Z,8.63
2023-04-22T18:49:09.119Z,8.56
2023-04-22T18:51:42.234Z,8.48
2023-04-22T18:54:13.296Z,8.39
2023-04-22T18:56:42.865Z,8.33
2023-04-22T18:59:14.262Z,8.27
2023-04-22T19:01:44.054Z,8.25
2023-04-22T19:04:13.722Z,8.16
2023-04-22T19:06:43.402Z,8.13
2023-04-22T19:09:12.752Z,8.05
2023-04-22T19:11:42.282Z,8.06
2023-04-22T19:14:13.306Z,7.96
2023-04-22T19:16:43.069Z,7.86
2023-04-22T19:19:12.636Z,7.83
2023-04-22T19:21:42.056Z,7.73
2023-04-22T19:24:13.096Z,7.64
2023-04-22T19:26:42.802Z,7.62
2023-04-22T19:29:13.904Z,7.61
2023-04-22T19:31:44.935Z,7.59
2023-04-22T19:34:14.485Z,7.60
2023-04-22T19:36:44.250Z,7.59
2023-04-22T19:39:14.028Z,7.53
2023-04-22T19:41:43.583Z,7.47
2023-04-22T19:44:13.369Z,7.45
2023-04-22T19:46:42.954Z,7.44
2023-04-22T19:49:12.858Z,7.43
2023-04-22T19:51:43.884Z,7.39
2023-04-22T19:54:14.318Z,7.40
2023-04-22T19:56:45.976Z,7.39
2023-04-22T19:59:15.726Z,7.43
2023-04-22T20:01:46.630Z,7.36
2023-04-22T20:04:16.294Z,7.39
2023-04-22T20:06:47.353Z,7.43
2023-04-22T20:09:17.173Z,7.41
2023-04-22T20:11:48.828Z,7.35
2023-04-22T20:14:19.005Z,7.29
2023-04-22T20:16:50.122Z,7.26
2023-04-22T20:19:19.981Z,7.13
2023-04-22T20:21:50.201Z,7.07
2023-04-22T20:24:20.104Z,6.99
2023-04-22T20:26:50.271Z,7.02
2023-04-22T20:29:19.951Z,7.04
2023-04-22T20:31:52.188Z,7.12
2023-04-22T20:34:21.689Z,7.21
2023-04-22T20:36:55.020Z,7.22
2023-04-22T20:39:25.705Z,7.22
2023-04-22T20:41:59.668Z,7.17
2023-04-22T20:44:29.317Z,7.08
2023-04-22T20:46:58.971Z,7.06
2023-04-22T20:49:28.449Z,7.04
2023-04-22T20:51:58.055Z,6.97
2023-04-22T20:54:29.383Z,6.98
2023-04-22T20:57:00.658Z,7.01
2023-04-22T20:59:30.541Z,7.06
2023-04-22T21:02:03.760Z,7.09
2023-04-22T21:04:33.898Z,7.16
2023-04-22T21:07:07.572Z,7.16
2023-04-22T21:09:37.059Z,7.18
2023-04-22T21:12:08.218Z,7.17
2023-04-22T21:14:43.466Z,7.17
2023-04-22T21:17:25.470Z,7.16
2023-04-22T21:19:57.343Z,7.12
2023-04-22T21:22:27.384Z,7.11
2023-04-22T21:24:56.873Z,7.09
2023-04-22T21:27:28.515Z,7.11
2023-04-22T21:29:58.630Z,7.06
2023-04-22T21:32:29.566Z,7.06
2023-04-22T21:34:58.950Z,7.14
2023-04-22T21:37:28.357Z,7.14
2023-04-22T21:40:00.430Z,7.17
2023-04-22T21:42:29.826Z,7.18
2023-04-22T21:44:59.122Z,7.15
2023-04-22T21:47:28.705Z,7.15
2023-04-22T21:49:58.096Z,7.17
2023-04-22T21:52:27.756Z,7.17
2023-04-22T21:54:57.050Z,7.20
2023-04-22T21:57:26.437Z,7.20
2023-04-22T21:59:56.270Z,7.20
2023-04-22T22:02:26.706Z,7.21
2023-04-22T22:04:56.318Z,7.19
2023-04-22T22:07:26.856Z,7.21
2023-04-22T22:09:58.785Z,7.23
2023-04-22T22:12:28.097Z,7.18
2023-04-22T22:14:57.697Z,7.18
2023-04-22T22:17:27.793Z,7.16
2023-04-22T22:19:57.477Z,7.17
2023-04-22T22:22:26.852Z,7.14
2023-04-22T22:24:56.221Z,7.14
2023-04-22T22:27:26.372Z,7.20
2023-04-22T22:29:56.065Z,7.15
2023-04-22T22:32:25.435Z,7.11
2023-04-22T22:34:54.979Z,7.12
2023-04-22T22:37:24.625Z,7.13
2023-04-22T22:39:53.954Z,7.17
2023-04-22T22:42:23.284Z,7.19
2023-04-22T22:44:52.643Z,7.19
2023-04-22T22:47:21.878Z,7.23
2023-04-22T22:49:51.307Z,7.23
2023-04-22T22:52:20.704Z,7.23
2023-04-22T22:54:50.594Z,7.19
2023-04-22T22:57:19.879Z,7.21
2023-04-22T22:59:49.176Z,7.19
2023-04-22T23:02:18.881Z,7.20
2023-04-22T23:04:48.484Z,7.17
2023-04-22T23:07:17.867Z,7.17
2023-04-22T23:09:47.398Z,7.16
2023-04-22T23:12:16.738Z,7.12
2023-04-22T23:14:46.580Z,7.13
2023-04-22T23:17:17.398Z,7.12
2023-04-22T23:19:47.374Z,7.12
2023-04-22T23:22:17.022Z,7.10
2023-04-22T23:24:46.734Z,7.06
2023-04-22T23:27:17.388Z,7.07
2023-04-22T23:29:46.975Z,7.08
2023-04-22T23:32:16.835Z,7.04
2023-04-22T23:34:46.926Z,7.03
2023-04-22T23:37:16.452Z,6.97
2023-04-22T23:39:46.031Z,6.97
2023-04-22T23:42:15.327Z,6.96
2023-04-22T23:44:46.651Z,6.90
2023-04-22T23:47:15.969Z,6.87
2023-04-22T23:49:46.292Z,6.87
2023-04-22T23:52:15.677Z,6.86
2023-04-22T23:54:45.164Z,6.85
2023-04-22T23:57:14.870Z,6.81
2023-04-22T23:59:44.654Z,6.76
